Time,TemperatureF,DewpointF,PressureIn,WindDirection,WindDirectionDegrees,WindSpeedMPH,WindSpeedGustMPH,Humidity,HourlyPrecipIn,Conditions,Clouds,dailyrainin,SoftwareType,DateUTC
2013-10-02 00:11:00,54.5,51.0,30.08,SE,140,1.0,6.0,89,0.00,,,0.00,weatherlink.com 1.10,2013-10-02 04:11:00,
2013-10-02 00:26:00,54.3,52.0,30.07,SW,218,0.0,3.0,90,0.00,,,0.00,weatherlink.com 1.10,2013-10-02 04:26:00,
2013-10-02 00:41:00,54.0,52.0,30.07,South,182,3.0,3.0,91,0.00,,,0.00,weatherlink.com 1.10,2013-10-02 04:41:00,
2013-10-02 00:56:00,53.9,51.0,30.07,West,269,0.0,3.0,91,0.00,,,0.00,weatherlink.com 1.10,2013-10-02 04:56:00,
2013-10-02 01:11:00,53.6,51.0,30.06,WNW,296,1.0,5.0,92,0.00,,,0.00,weatherlink.com 1.10,2013-10-02 05:11:00,
2013-10-02 01:26:00,53.4,51.0,30.06,NW,312,2.0,4.0,92,0.00,,,0.00,weatherlink.com 1.10,2013-10-02 05:26:00,
2013-10-02 01:41:00,52.8,51.0,30.06,West,278,4.0,5.0,93,0.00,,,0.00,weatherlink.com 1.10,2013-10-02 05:41:00,
2013-10-02 01:56:00,53.4,51.0,30.07,SSW,204,0.0,5.0,92,0.00,,,0.00,weatherlink.com 1.10,2013-10-02 05:56:00,
2013-10-02 02:11:00,53.2,51.0,30.07,NW,309,4.0,5.0,93,0.00,,,0.00,weatherlink.com 1.10,2013-10-02 06:11:00,
2013-10-02 02:26:00,53.0,51.0,30.06,NNW,329,3.0,5.0,93,0.00,,,0.00,weatherlink.com 1.10,2013-10-02 06:26:00,
2013-10-02 02:41:00,52.8,51.0,30.06,NNW,336,3.0,6.0,94,0.00,,,0.00,weatherlink.com 1.10,2013-10-02 06:41:00,
2013-10-02 02:56:00,52.6,51.0,30.06,SSW,206,7.0,9.0,94,0.00,,,0.00,weatherlink.com 1.10,2013-10-02 06:56:00,
2013-10-02 03:11:00,52.6,51.0,30.05,NW,324,5.0,8.0,95,0.00,,,0.00,weatherlink.com 1.10,2013-10-02 07:11:00,
2013-10-02 03:26:00,52.4,51.0,30.05,WNW,296,5.0,12.0,95,0.00,,,0.00,weatherlink.com 1.10,2013-10-02 07:26:00,
2013-10-02 03:41:00,52.3,51.0,30.05,NW,304,3.0,10.0,95,0.00,,,0.00,weatherlink.com 1.10,2013-10-02 07:41:00,
2013-10-02 03:56:00,52.3,51.0,30.04,WSW,240,1.0,11.0,95,0.00,,,0.00,weatherlink.com 1.10,2013-10-02 07:56:00,
2013-10-02 04:11:00,52.3,51.0,30.04,WNW,292,3.0,9.0,95,0.00,,,0.00,weatherlink.com 1.10,2013-10-02 08:11:00,
2013-10-02 04:26:00,52.2,51.0,30.04,WNW,302,5.0,8.0,96,0.00,,,0.00,weatherlink.com 1.10,2013-10-02 08:26:00,
2013-10-02 04:57:00,52.3,51.0,30.05,WNW,288,6.0,8.0,95,0.00,,,0.00,weatherlink.com 1.10,2013-10-02 08:57:00,
2013-10-02 05:12:00,52.5,51.0,30.05,SE,140,1.0,13.0,94,0.00,,,0.00,weatherlink.com 1.10,2013-10-02 09:12:00,
2013-10-02 05:27:00,52.3,51.0,30.05,West,280,1.0,8.0,94,0.00,,,0.00,weatherlink.com 1.10,2013-10-02 09:27:00,
2013-10-02 05:42:00,52.3,51.0,30.05,SSW,209,0.0,8.0,94,0.00,,,0.00,weatherlink.com 1.10,2013-10-02 09:42:00,
2013-10-02 05:57:00,52.3,51.0,30.05,WNW,288,6.0,11.0,94,0.00,,,0.00,weatherlink.com 1.10,2013-10-02 09:57:00,
2013-10-02 06:12:00,52.0,51.0,30.05,West,272,4.0,9.0,95,0.00,,,0.00,weatherlink.com 1.10,2013-10-02 10:12:00,
2013-10-02 06:27:00,52.0,51.0,30.06,West,261,4.0,9.0,95,0.00,,,0.00,weatherlink.com 1.10,2013-10-02 10:27:00,
2013-10-02 06:42:00,52.0,51.0,30.06,NW,325,3.0,13.0,95,0.00,,,0.00,weatherlink.com 1.10,2013-10-02 10:42:00,
2013-10-02 06:57:00,51.9,51.0,30.06,WNW,294,3.0,9.0,96,0.00,,,0.00,weatherlink.com 1.10,2013-10-02 10:57:00,
2013-10-02 07:12:00,51.7,51.0,30.07,WNW,291,6.0,9.0,96,0.00,,,0.00,weatherlink.com 1.10,2013-10-02 11:12:00,
2013-10-02 07:27:00,51.7,51.0,30.07,WNW,286,6.0,11.0,96,0.00,,,0.00,weatherlink.com 1.10,2013-10-02 11:27:00,
2013-10-02 07:42:00,51.7,51.0,30.08,NW,306,6.0,10.0,96,0.00,,,0.00,weatherlink.com 1.10,2013-10-02 11:42:00,
2013-10-02 07:57:00,51.8,51.0,30.08,WSW,257,6.0,11.0,96,0.00,,,0.00,weatherlink.com 1.10,2013-10-02 11:57:00,
2013-10-02 08:12:00,52.2,51.0,30.09,West,265,4.0,9.0,97,0.00,,,0.00,weatherlink.com 1.10,2013-10-02 12:12:00,
2013-10-02 08:27:00,52.5,52.0,30.09,SSW,208,5.0,10.0,97,0.00,,,0.00,weatherlink.com 1.10,2013-10-02 12:27:00,
2013-10-02 08:42:00,52.7,52.0,30.10,NW,309,5.0,11.0,97,0.00,,,0.00,weatherlink.com 1.10,2013-10-02 12:42:00,
2013-10-02 08:57:00,53.0,52.0,30.10,WNW,303,4.0,10.0,97,0.00,,,0.00,weatherlink.com 1.10,2013-10-02 12:57:00,
2013-10-02 09:12:00,53.3,53.0,30.11,WNW,298,7.0,10.0,97,0.00,,,0.00,weatherlink.com 1.10,2013-10-02 13:12:00,
2013-10-02 09:27:00,54.1,53.0,30.11,WSW,242,5.0,11.0,97,0.00,,,0.00,weatherlink.com 1.10,2013-10-02 13:27:00,
2013-10-02 09:42:00,54.3,53.0,30.11,WNW,291,6.0,9.0,96,0.00,,,0.00,weatherlink.com 1.10,2013-10-02 13:42:00,
2013-10-02 09:57:00,54.7,54.0,30.11,WSW,251,4.0,11.0,96,0.00,,,0.00,weatherlink.com 1.10,2013-10-02 13:57:00,
2013-10-02 10:12:00,54.8,54.0,30.11,SSW,210,7.0,10.0,96,0.00,,,0.00,weatherlink.com 1.10,2013-10-02 14:12:00,
2013-10-02 10:27:00,55.3,54.0,30.11,WNW,294,6.0,10.0,95,0.00,,,0.00,weatherlink.com 1.10,2013-10-02 14:27:00,
2013-10-02 10:42:00,55.8,54.0,30.11,SSE,168,3.0,8.0,95,0.00,,,0.00,weatherlink.com 1.10,2013-10-02 14:42:00,
2013-10-02 10:57:00,57.3,55.0,30.12,WSW,242,7.0,11.0,91,0.00,,,0.00,weatherlink.com 1.10,2013-10-02 14:57:00,
2013-10-02 11:12:00,58.2,55.0,30.12,West,259,0.0,8.0,89,0.00,,,0.00,weatherlink.com 1.10,2013-10-02 15:12:00,
2013-10-02 11:27:00,58.0,54.0,30.12,West,261,4.0,10.0,86,0.00,,,0.00,weatherlink.com 1.10,2013-10-02 15:27:00,
2013-10-02 11:42:00,59.0,54.0,30.11,WSW,247,4.0,9.0,84,0.00,,,0.00,weatherlink.com 1.10,2013-10-02 15:42:00,
2013-10-02 11:57:00,58.5,53.0,30.11,NW,310,3.0,7.0,83,0.00,,,0.00,weatherlink.com 1.10,2013-10-02 15:57:00,
2013-10-02 12:12:00,59.3,54.0,30.11,WSW,240,4.0,11.0,82,0.00,,,0.00,weatherlink.com 1.10,2013-10-02 16:12:00,
2013-10-02 12:27:00,58.8,54.0,30.11,WNW,288,0.0,11.0,83,0.00,,,0.00,weatherlink.com 1.10,2013-10-02 16:27:00,
2013-10-02 12:42:00,59.5,54.0,30.10,SW,222,5.0,15.0,83,0.00,,,0.00,weatherlink.com 1.10,2013-10-02 16:42:00,
2013-10-02 12:57:00,58.7,54.0,30.10,NW,321,5.0,8.0,83,0.00,,,0.00,weatherlink.com 1.10,2013-10-02 16:57:00,
2013-10-02 13:12:00,59.1,54.0,30.10,SW,230,6.0,11.0,82,0.00,,,0.00,weatherlink.com 1.10,2013-10-02 17:12:00,
2013-10-02 13:27:00,59.6,54.0,30.09,SW,221,4.0,7.0,81,0.00,,,0.00,weatherlink.com 1.10,2013-10-02 17:27:00,
2013-10-02 13:42:00,59.9,53.0,30.09,WSW,241,5.0,9.0,79,0.00,,,0.00,weatherlink.com 1.10,2013-10-02 17:42:00,
2013-10-02 13:58:00,61.5,53.0,30.08,SW,236,2.0,9.0,74,0.00,,,0.00,weatherlink.com 1.10,2013-10-02 17:58:00,
2013-10-02 14:13:00,62.2,54.0,30.07,NW,307,4.0,7.0,74,0.00,,,0.00,weatherlink.com 1.10,2013-10-02 18:13:00,
2013-10-02 14:28:00,62.3,53.0,30.07,WSW,244,2.0,8.0,71,0.00,,,0.00,weatherlink.com 1.10,2013-10-02 18:28:00,
2013-10-02 14:43:00,60.5,53.0,30.07,WSW,251,1.0,6.0,75,0.00,,,0.00,weatherlink.com 1.10,2013-10-02 18:43:00,
2013-10-02 14:58:00,60.2,53.0,30.07,West,281,3.0,6.0,76,0.00,,,0.00,weatherlink.com 1.10,2013-10-02 18:58:00,
2013-10-02 15:13:00,60.8,53.0,30.06,West,273,0.0,8.0,75,0.00,,,0.00,weatherlink.com 1.10,2013-10-02 19:13:00,
2013-10-02 15:28:00,62.3,54.0,30.06,WNW,286,2.0,4.0,74,0.00,,,0.00,weatherlink.com 1.10,2013-10-02 19:28:00,
2013-10-02 15:43:00,62.5,54.0,30.05,South,170,2.0,7.0,73,0.00,,,0.00,weatherlink.com 1.10,2013-10-02 19:43:00,
2013-10-02 15:58:00,62.9,52.0,30.05,SW,220,2.0,7.0,68,0.00,,,0.00,weatherlink.com 1.10,2013-10-02 19:58:00,
2013-10-02 16:13:00,63.0,51.0,30.05,SW,236,4.0,7.0,66,0.00,,,0.00,weatherlink.com 1.10,2013-10-02 20:13:00,
2013-10-02 16:28:00,63.2,52.0,30.05,South,182,1.0,3.0,68,0.00,,,0.00,weatherlink.com 1.10,2013-10-02 20:28:00,
2013-10-02 16:43:00,64.0,53.0,30.05,WSW,244,1.0,5.0,68,0.00,,,0.00,weatherlink.com 1.10,2013-10-02 20:43:00,
2013-10-02 16:58:00,63.4,53.0,30.05,SW,236,1.0,4.0,70,0.00,,,0.00,weatherlink.com 1.10,2013-10-02 20:58:00,
2013-10-02 17:13:00,62.6,53.0,30.05,WSW,249,0.0,4.0,71,0.00,,,0.00,weatherlink.com 1.10,2013-10-02 21:13:00,
2013-10-02 17:28:00,61.7,53.0,30.05,SW,215,2.0,6.0,72,0.00,,,0.00,weatherlink.com 1.10,2013-10-02 21:28:00,
2013-10-02 17:43:00,61.7,53.0,30.05,SW,229,0.0,3.0,74,0.00,,,0.00,weatherlink.com 1.10,2013-10-02 21:43:00,
2013-10-02 17:58:00,61.4,53.0,30.05,SW,216,0.0,4.0,74,0.00,,,0.00,weatherlink.com 1.10,2013-10-02 21:58:00,
2013-10-02 18:13:00,60.6,53.0,30.05,SSW,207,0.0,5.0,77,0.00,,,0.00,weatherlink.com 1.10,2013-10-02 22:13:00,
2013-10-02 18:28:00,59.6,53.0,30.05,South,169,0.0,5.0,79,0.00,,,0.00,weatherlink.com 1.10,2013-10-02 22:28:00,
2013-10-02 18:43:00,58.8,53.0,30.05,SE,142,2.0,4.0,80,0.00,,,0.00,weatherlink.com 1.10,2013-10-02 22:43:00,
2013-10-02 18:58:00,58.2,52.0,30.06,SE,140,0.0,3.0,79,0.00,,,0.00,weatherlink.com 1.10,2013-10-02 22:58:00,
2013-10-02 19:13:00,57.4,52.0,30.06,SE,140,0.0,1.0,83,0.00,,,0.00,weatherlink.com 1.10,2013-10-02 23:13:00,
2013-10-02 19:28:00,56.6,52.0,30.06,SE,140,0.0,0.0,85,0.00,,,0.00,weatherlink.com 1.10,2013-10-02 23:28:00,
2013-10-02 19:44:00,56.6,53.0,30.06,SE,140,0.0,1.0,86,0.00,,,0.00,weatherlink.com 1.10,2013-10-02 23:44:00,
2013-10-02 19:58:00,56.2,52.0,30.06,SE,140,0.0,0.0,84,0.00,,,0.00,weatherlink.com 1.10,2013-10-02 23:58:00,
2013-10-02 20:13:00,55.6,52.0,30.06,SE,140,0.0,0.0,86,0.00,,,0.00,weatherlink.com 1.10,2013-10-03 00:13:00,
2013-10-02 20:28:00,55.2,51.0,30.06,SE,140,0.0,0.0,87,0.00,,,0.00,weatherlink.com 1.10,2013-10-03 00:28:00,
2013-10-02 20:43:00,55.0,51.0,30.07,SE,140,0.0,1.0,87,0.00,,,0.00,weatherlink.com 1.10,2013-10-03 00:43:00,
2013-10-02 20:58:00,54.8,51.0,30.07,SE,140,0.0,0.0,87,0.00,,,0.00,weatherlink.com 1.10,2013-10-03 00:58:00,
2013-10-02 21:13:00,54.7,51.0,30.07,SE,140,0.0,1.0,88,0.00,,,0.00,weatherlink.com 1.10,2013-10-03 01:13:00,
2013-10-02 21:28:00,54.8,51.0,30.07,WSW,253,0.0,1.0,88,0.00,,,0.00,weatherlink.com 1.10,2013-10-03 01:28:00,
2013-10-02 21:43:00,55.6,52.0,30.07,ENE,69,0.0,2.0,88,0.00,,,0.00,weatherlink.com 1.10,2013-10-03 01:43:00,
2013-10-02 21:58:00,55.5,53.0,30.07,ENE,69,0.0,1.0,92,0.00,,,0.00,weatherlink.com 1.10,2013-10-03 01:58:00,
2013-10-02 22:13:00,55.6,53.0,30.07,ENE,69,0.0,1.0,92,0.00,,,0.00,weatherlink.com 1.10,2013-10-03 02:13:00,
2013-10-02 22:28:00,55.8,53.0,30.07,East,87,0.0,0.0,91,0.00,,,0.00,weatherlink.com 1.10,2013-10-03 02:28:00,
2013-10-02 22:43:00,55.6,53.0,30.07,East,87,0.0,1.0,91,0.00,,,0.00,weatherlink.com 1.10,2013-10-03 02:43:00,
2013-10-02 22:58:00,55.0,53.0,30.07,East,87,0.0,1.0,92,0.00,,,0.00,weatherlink.com 1.10,2013-10-03 02:58:00,
2013-10-02 23:13:00,55.2,53.0,30.07,East,88,0.0,2.0,92,0.00,,,0.00,weatherlink.com 1.10,2013-10-03 03:13:00,
2013-10-02 23:28:00,55.2,53.0,30.07,East,92,0.0,3.0,91,0.00,,,0.00,weatherlink.com 1.10,2013-10-03 03:28:00,
2013-10-02 23:43:00,54.9,53.0,30.07,East,94,0.0,1.0,92,0.00,,,0.00,weatherlink.com 1.10,2013-10-03 03:43:00,
2013-10-02 23:58:00,54.5,52.0,30.08,East,94,0.0,0.0,92,0.00,,,0.00,weatherlink.com 1.10,2013-10-03 03:58:00,